Aeroporto :
LOGIN :

Iscrizione | Disclaimer

   EN    FR    IT 

 










Sommario :    VFR   VFR Marginale   IFR   IFR Intensivo   IFR Molto Intensivo
Visibilità : 
Base nubi : 
>= 8 km
>= 3000ft
5 / 8 km
1000 / 3000 ft
1500m / 5 km
500 / 1000 ft
800 / 1500m
200 / 500 ft
< 800m
< 200 ft
Simboli :   Temporali  Nebbia  Neve Forte  Precipitazioni Forti  Vento > 20 kt
SIGMETs :   Varie  Temporali  Ghiacco  Turbolenza  Onda orograficha  Ceneri Vulcaniche






- Altitudine del aeroporto : 791 ft
- Codice IATA : KRK


EPKK - Krakow-Balice

ULTIMO METAR :
  • 021300Z 24010KT 200V310 CAVOK 11/M08 Q1011

METARs OBSOLETI :
  • 021230Z 26011KT CAVOK 10/M08 Q1012
  • 021200Z 25012KT 190V280 CAVOK 10/M07 Q1012
  • 021130Z 24012KT 210V270 CAVOK 10/M08 Q1012
  • 021100Z 24013KT CAVOK 10/M06 Q1013
  • 021030Z 26014KT 210V280 CAVOK 09/M08 Q1013
  • 021000Z 25014KT CAVOK 09/M07 Q1013

TAF TAF EPKK
Valido dal 02 a 12 ore il 03 a 12 ore UTC


021130Z 0212/0312 25012KT CAVOK
PROB40
TEMPO 0212/0215 25015G25KT
PROB40
TEMPO 0306/0312 27015G25KT
TEMPO 0310/0312 BKN040TCU



MetMap, La meteo Aeronautica in un colpo d'occhio ! - Copyright ORBIFLY Dicembre 2007 - Disclaimer

ORBIFLY MET'MAP TEAM :

Programmazione e sviluppo : Alexandra Zaïnal
Concezione : Baudouin d'Aumeries
Aiuto per la programmazione : Marc-Olivier Méhu
Supporto tecnico e logistico : Manuel Goepfert
Aiuto per la traduzione : Arnaldo La Scala

Contatto : metmap@orbifly.com




FONTI E CREDITI :

   NOAA